createdAt,value
2023-08-07T00:00:16.594Z,2.69
2023-08-07T00:02:50.026Z,2.68
2023-08-07T00:05:25.263Z,2.93
2023-08-07T00:14:48.950Z,3.20
2023-08-07T00:17:22.318Z,3.15
2023-08-07T00:20:00.944Z,2.97
2023-08-07T00:22:36.161Z,2.95
2023-08-07T00:25:10.189Z,3.10
2023-08-07T00:27:43.391Z,3.13
2023-08-07T00:30:18.976Z,3.03
2023-08-07T00:43:30.990Z,3.09
2023-08-07T00:46:04.845Z,3.33
2023-08-07T00:48:38.943Z,3.39
2023-08-07T00:51:12.805Z,3.24
2023-08-07T00:53:47.937Z,3.19
2023-08-07T01:10:25.944Z,3.59
2023-08-07T01:13:19.954Z,3.49
2023-08-07T01:16:05.468Z,3.46
2023-08-07T01:18:46.967Z,3.48
2023-08-07T01:21:20.921Z,3.53
2023-08-07T01:23:56.953Z,3.44
2023-08-07T01:37:09.967Z,3.38
2023-08-07T01:39:49.331Z,3.07
2023-08-07T01:42:29.953Z,3.06
2023-08-07T01:45:05.243Z,2.89
2023-08-07T01:47:39.036Z,3.05
2023-08-07T01:50:12.486Z,2.91
2023-08-07T02:03:02.979Z,2.84
2023-08-07T02:05:42.977Z,2.65
2023-08-07T02:08:16.204Z,2.82
2023-08-07T02:10:57.002Z,2.87
2023-08-07T02:13:30.290Z,2.80
2023-08-07T02:29:45.977Z,2.65
2023-08-07T02:32:19.252Z,2.55
2023-08-07T02:34:54.195Z,2.45
2023-08-07T02:37:27.225Z,2.36
2023-08-07T02:40:00.965Z,2.39
2023-08-07T02:42:34.358Z,2.30
2023-08-07T02:45:10.959Z,2.38
2023-08-07T02:55:15.947Z,2.57
2023-08-07T02:57:55.964Z,2.98
2023-08-07T03:00:31.125Z,2.57
2023-08-07T03:03:04.950Z,2.71
2023-08-07T03:05:38.256Z,2.61
2023-08-07T03:08:11.974Z,2.76
2023-08-07T03:22:05.959Z,3.27
2023-08-07T03:24:39.475Z,2.73
2023-08-07T03:27:13.954Z,2.87
2023-08-07T03:29:47.444Z,2.94
2023-08-07T03:32:22.981Z,2.94
2023-08-07T03:34:56.358Z,2.97
2023-08-07T03:51:13.976Z,2.96
2023-08-07T03:53:51.738Z,2.89
2023-08-07T03:56:31.937Z,3.20
2023-08-07T03:59:06.487Z,3.38
2023-08-07T04:01:39.979Z,3.59
2023-08-07T04:04:13.318Z,3.59
2023-08-07T04:17:03.918Z,3.66
2023-08-07T04:19:44.969Z,3.86
2023-08-07T04:22:18.195Z,3.81
2023-08-07T04:24:51.961Z,3.68
2023-08-07T04:27:25.253Z,3.84
2023-08-07T04:29:58.954Z,4.00
2023-08-07T04:43:11.970Z,4.49
2023-08-07T04:45:45.551Z,4.38
2023-08-07T04:48:19.203Z,4.48
2023-08-07T04:50:53.209Z,4.52
2023-08-07T04:53:26.951Z,4.47
2023-08-07T05:10:03.940Z,4.67
2023-08-07T05:12:43.965Z,4.70
2023-08-07T05:15:17.360Z,4.98
2023-08-07T05:17:50.986Z,4.53
2023-08-07T05:20:24.241Z,4.72
2023-08-07T05:22:57.994Z,4.69
2023-08-07T05:25:33.155Z,4.40
2023-08-07T05:35:41.982Z,4.06
2023-08-07T05:38:15.228Z,4.33
2023-08-07T05:40:50.974Z,4.06
2023-08-07T05:43:24.284Z,4.01
2023-08-07T05:45:59.035Z,4.19
2023-08-07T05:48:32.262Z,4.00
2023-08-07T06:04:47.986Z,4.96
2023-08-07T06:07:21.256Z,5.00
2023-08-07T06:09:54.955Z,5.05
2023-08-07T06:12:28.253Z,5.22
2023-08-07T06:15:02.018Z,5.22
2023-08-07T06:31:39.077Z,5.26
2023-08-07T06:34:19.001Z,5.37
2023-08-07T06:36:52.281Z,5.36
2023-08-07T06:39:25.950Z,5.36
2023-08-07T06:41:59.411Z,5.45
2023-08-07T06:44:37.981Z,5.46
2023-08-07T06:57:49.951Z,5.37
2023-08-07T07:00:23.278Z,5.59
2023-08-07T07:02:56.970Z,5.64
2023-08-07T07:05:30.830Z,5.86
2023-08-07T07:08:05.003Z,5.69
2023-08-07T07:10:38.360Z,5.92
2023-08-07T07:23:28.931Z,5.86
2023-08-07T07:26:08.989Z,5.59
2023-08-07T07:28:42.249Z,5.55
2023-08-07T07:31:15.966Z,5.52
2023-08-07T07:33:49.288Z,5.76
2023-08-07T07:36:24.953Z,5.77
2023-08-07T07:39:00.108Z,5.29
2023-08-07T07:51:47.929Z,5.30
2023-08-07T07:54:30.993Z,4.84
2023-08-07T07:57:05.493Z,4.77
2023-08-07T07:59:38.983Z,4.62
2023-08-07T08:02:12.320Z,4.65
2023-08-07T08:04:46.016Z,4.52
2023-08-07T08:17:58.020Z,4.16
2023-08-07T08:20:31.547Z,4.09
2023-08-07T08:23:04.956Z,4.33
2023-08-07T08:25:38.209Z,4.26
2023-08-07T08:28:11.976Z,4.33
2023-08-07T08:30:45.286Z,4.60
2023-08-07T08:43:41.930Z,3.68
2023-08-07T08:46:23.105Z,3.78
2023-08-07T08:48:58.757Z,3.69
2023-08-07T08:51:33.003Z,3.51
2023-08-07T08:54:07.038Z,3.56
2023-08-07T08:56:41.025Z,3.61
2023-08-07T08:59:16.712Z,3.35
2023-08-07T09:12:07.945Z,3.40
2023-08-07T09:14:56.990Z,3.28
2023-08-07T09:17:35.858Z,3.23
2023-08-07T09:20:17.975Z,3.09
2023-08-07T09:22:51.435Z,3.47
2023-08-07T09:25:34.962Z,3.13
2023-08-07T09:38:46.978Z,2.79
2023-08-07T09:41:20.260Z,2.76
2023-08-07T09:43:54.005Z,2.64
2023-08-07T09:46:27.453Z,2.69
2023-08-07T09:49:06.028Z,2.63
2023-08-07T10:05:42.934Z,2.55
2023-08-07T10:08:23.959Z,2.41
2023-08-07T10:10:59.106Z,2.24
2023-08-07T10:13:39.170Z,2.42
2023-08-07T10:16:14.266Z,2.42
2023-08-07T10:18:47.983Z,2.26
2023-08-07T10:32:04.029Z,2.04
2023-08-07T10:34:37.991Z,2.12
2023-08-07T10:37:13.988Z,2.26
2023-08-07T10:40:02.627Z,2.23
2023-08-07T10:43:00.022Z,2.19
2023-08-07T10:45:37.281Z,2.30
2023-08-07T10:58:39.965Z,2.51
2023-08-07T11:01:28.050Z,2.42
2023-08-07T11:04:07.226Z,2.22
2023-08-07T11:06:49.988Z,2.28
2023-08-07T11:09:23.265Z,2.41
2023-08-07T11:25:38.994Z,2.41
2023-08-07T11:28:12.231Z,2.35
2023-08-07T11:30:45.986Z,2.21
2023-08-07T11:33:20.013Z,2.21
2023-08-07T11:35:54.968Z,2.27
2023-08-07T11:38:33.584Z,2.18
2023-08-07T11:51:30.935Z,1.78
2023-08-07T11:54:10.995Z,1.64
2023-08-07T11:56:44.206Z,1.82
2023-08-07T11:59:17.965Z,1.69
2023-08-07T12:01:52.827Z,1.59
2023-08-07T12:04:25.972Z,1.55
2023-08-07T12:17:40.047Z,1.64
2023-08-07T12:20:13.502Z,1.63
2023-08-07T12:22:46.983Z,1.63
2023-08-07T12:25:20.330Z,1.59
2023-08-07T12:27:53.989Z,1.47
2023-08-07T12:30:27.267Z,1.44
2023-08-07T12:43:49.944Z,1.55
2023-08-07T12:46:32.985Z,1.39
2023-08-07T12:49:08.850Z,1.42
2023-08-07T12:51:48.975Z,1.53
2023-08-07T12:54:22.282Z,1.48
2023-08-07T12:56:56.170Z,1.56
2023-08-07T12:59:32.273Z,1.47
2023-08-07T13:12:20.949Z,1.17
2023-08-07T13:15:03.992Z,1.25
2023-08-07T13:17:37.772Z,1.17
2023-08-07T13:20:18.967Z,1.09
2023-08-07T13:22:52.234Z,1.16
2023-08-07T13:25:25.980Z,1.12
2023-08-07T13:38:38.005Z,1.10
2023-08-07T13:41:11.240Z,1.27
2023-08-07T13:43:44.985Z,1.21
2023-08-07T13:46:18.313Z,1.19
2023-08-07T13:48:51.992Z,0.97
2023-08-07T14:05:28.966Z,1.08
2023-08-07T14:08:09.004Z,1.00
2023-08-07T14:10:42.970Z,0.91
2023-08-07T14:13:17.012Z,1.09
2023-08-07T14:15:50.228Z,1.05
2023-08-07T14:18:24.164Z,0.95
2023-08-07T14:30:56.074Z,1.45
2023-08-07T14:33:29.555Z,1.73
2023-08-07T14:36:05.015Z,1.70
2023-08-07T14:38:38.257Z,1.47
2023-08-07T14:41:11.957Z,1.20
2023-08-07T14:43:45.503Z,0.93
2023-08-07T14:59:15.985Z,0.71
2023-08-07T15:01:49.222Z,0.66
2023-08-07T15:04:22.993Z,0.71
2023-08-07T15:06:56.194Z,0.63
2023-08-07T15:09:29.981Z,0.66
2023-08-07T15:26:06.992Z,0.62
2023-08-07T15:28:46.991Z,0.52
2023-08-07T15:31:20.365Z,0.50
2023-08-07T15:33:53.989Z,0.53
2023-08-07T15:36:27.274Z,0.54
2023-08-07T15:39:00.983Z,0.55
2023-08-07T15:52:13.981Z,0.59
2023-08-07T15:54:47.261Z,0.63
2023-08-07T15:57:20.973Z,0.75
2023-08-07T15:59:54.242Z,0.54
2023-08-07T16:02:28.028Z,0.67
2023-08-07T16:05:01.363Z,0.57
2023-08-07T16:17:52.019Z,0.67
2023-08-07T16:20:32.028Z,0.60
2023-08-07T16:23:05.517Z,0.64
2023-08-07T16:25:40.010Z,0.67
2023-08-07T16:28:13.193Z,0.65
2023-08-07T16:30:46.991Z,0.70
2023-08-07T16:44:36.986Z,0.79
2023-08-07T16:47:10.284Z,0.77
2023-08-07T16:49:43.974Z,0.77
2023-08-07T16:52:17.648Z,0.79
2023-08-07T16:54:50.994Z,0.87
2023-08-07T16:57:24.278Z,0.77
2023-08-07T17:00:17.010Z,0.87
2023-08-07T17:13:26.987Z,0.80
2023-08-07T17:16:02.294Z,0.90
2023-08-07T17:18:36.008Z,0.74
2023-08-07T17:21:09.201Z,0.78
2023-08-07T17:23:42.978Z,0.68
2023-08-07T17:26:16.921Z,0.81
2023-08-07T17:39:06.969Z,0.88
2023-08-07T17:41:46.981Z,1.11
2023-08-07T17:44:20.202Z,0.91
2023-08-07T17:46:54.118Z,0.99
2023-08-07T17:49:27.357Z,1.08
2023-08-07T18:05:42.999Z,1.12
2023-08-07T18:08:16.281Z,1.31
2023-08-07T18:10:50.048Z,1.26
2023-08-07T18:13:23.217Z,1.27
2023-08-07T18:18:27.238Z,1.19
2023-08-07T18:20:56.069Z,1.23
2023-08-07T18:33:55.807Z,1.24
2023-08-07T18:36:38.004Z,1.15
2023-08-07T18:39:11.314Z,1.37
2023-08-07T18:41:44.977Z,1.40
2023-08-07T18:44:18.231Z,1.36
2023-08-07T19:00:33.986Z,1.43
2023-08-07T19:03:08.503Z,1.46
2023-08-07T19:05:42.010Z,1.42
2023-08-07T19:08:15.379Z,1.55
2023-08-07T19:10:49.000Z,1.62
2023-08-07T19:13:22.317Z,1.70
2023-08-07T19:15:58.063Z,1.68
2023-08-07T19:25:42.958Z,1.83
2023-08-07T19:28:23.031Z,1.65
2023-08-07T19:31:05.874Z,1.78
2023-08-07T19:33:48.024Z,1.87
2023-08-07T19:36:21.203Z,1.75
2023-08-07T19:38:54.985Z,1.84
2023-08-07T19:52:13.984Z,1.97
2023-08-07T19:54:47.231Z,1.99
2023-08-07T19:57:20.999Z,1.93
2023-08-07T19:59:54.335Z,1.85
2023-08-07T20:02:28.026Z,2.08
2023-08-07T20:05:01.309Z,2.12
2023-08-07T20:18:34.966Z,1.80
2023-08-07T20:21:17.013Z,2.19
2023-08-07T20:23:50.309Z,2.05
2023-08-07T20:26:23.997Z,1.86
2023-08-07T20:28:57.264Z,1.96
2023-08-07T20:31:31.028Z,1.86
2023-08-07T20:34:04.413Z,1.89
2023-08-07T20:46:55.118Z,1.86
2023-08-07T20:49:35.000Z,2.01
2023-08-07T20:52:08.474Z,1.92
2023-08-07T20:54:42.031Z,2.04
2023-08-07T20:57:15.260Z,1.95
2023-08-07T20:59:48.995Z,1.87
2023-08-07T21:13:01.030Z,2.07
2023-08-07T21:15:34.367Z,2.01
2023-08-07T21:18:08.025Z,1.97
2023-08-07T21:20:41.204Z,2.17
2023-08-07T21:23:14.990Z,1.94
2023-08-07T21:25:48.323Z,2.00
2023-08-07T21:38:53.995Z,1.98
2023-08-07T21:41:35.046Z,1.98
2023-08-07T21:44:08.200Z,2.06
2023-08-07T21:46:42.042Z,1.93
2023-08-07T21:49:15.252Z,2.01
2023-08-07T21:51:49.097Z,1.86
2023-08-07T21:54:24.227Z,1.95
2023-08-07T22:07:12.981Z,1.97
2023-08-07T22:09:54.979Z,1.85
2023-08-07T22:12:28.201Z,1.93
2023-08-07T22:15:01.984Z,2.10
2023-08-07T22:17:36.043Z,2.03
2023-08-07T22:20:10.994Z,1.97
2023-08-07T22:33:23.128Z,1.91
2023-08-07T22:35:56.246Z,2.23
2023-08-07T22:38:30.028Z,1.98
2023-08-07T22:41:03.233Z,1.90
2023-08-07T22:43:37.269Z,1.90
2023-08-07T22:46:11.411Z,1.89
2023-08-07T22:59:10.985Z,1.79
2023-08-07T23:01:51.088Z,1.74
2023-08-07T23:04:24.303Z,1.84
2023-08-07T23:07:01.034Z,1.79
2023-08-07T23:09:34.383Z,2.07
2023-08-07T23:12:08.032Z,1.80
2023-08-07T23:14:43.160Z,1.90
2023-08-07T23:27:31.955Z,1.78
2023-08-07T23:30:14.999Z,1.91
2023-08-07T23:32:55.296Z,1.82
2023-08-07T23:35:35.971Z,1.73
2023-08-07T23:38:09.266Z,2.07
2023-08-07T23:40:45.024Z,1.82
2023-08-07T23:53:56.985Z,2.20
2023-08-07T23:56:30.470Z,2.10
2023-08-07T23:59:04.037Z,2.11
